Time;durP1;ratioP1;P1;durP2;ratioP2;P2;SDS_P1;SDS_P2;PMS_P1;PMS_P2;Temp;Humidity;BMP_temperature;BMP_pressure;BME280_temperature;BME280_humidity;BME280_pressure;Samples;Min_cycle;Max_cycle;Signal;HPM_P1;HPM_P2
2023/08/02 00:00:32;;;;;;;;;4.00;4.00;;;;;;;;5125071;27;48135;-75
2023/08/02 00:02:57;;;;;;;;;7.33;5.67;;;;;;;;5124721;27;45310;-75
2023/08/02 00:05:23;;;;;;;;;5.00;4.00;;;;;;;;5125053;27;45349;-75
2023/08/02 00:07:48;;;;;;;;;4.00;4.00;;;;;;;;5124912;27;47213;-75
2023/08/02 00:10:13;;;;;;;;;7.67;6.00;;;;;;;;5124824;27;46737;-75
2023/08/02 00:12:38;;;;;;;;;6.00;5.00;;;;;;;;5124687;27;45516;-75
2023/08/02 00:15:04;;;;;;;;;6.00;4.00;;;;;;;;5125020;27;45347;-75
2023/08/02 00:17:29;;;;;;;;;5.00;3.67;;;;;;;;5124539;27;46090;-75
2023/08/02 00:19:54;;;;;;;;;4.00;3.33;;;;;;;;5124851;27;45435;-75
2023/08/02 00:22:19;;;;;;;;;2.33;2.00;;;;;;;;5124494;27;45279;-76
2023/08/02 00:24:45;;;;;;;;;2.00;2.00;;;;;;;;5124915;27;45250;-75
2023/08/02 00:27:10;;;;;;;;;2.00;2.00;;;;;;;;5124408;27;45665;-76
2023/08/02 00:29:35;;;;;;;;;3.00;2.00;;;;;;;;5112532;27;46797;-76
2023/08/02 00:32:00;;;;;;;;;3.00;2.33;;;;;;;;5122405;27;45333;-75
2023/08/02 00:34:26;;;;;;;;;1.50;1.50;;;;;;;;5103851;27;45293;-76
2023/08/02 00:36:51;;;;;;;;;1.00;1.00;;;;;;;;5103681;27;45899;-76
2023/08/02 00:39:18;;;;;;;;;2.00;2.00;;;;;;;;5103697;27;47297;-75
2023/08/02 00:41:43;;;;;;;;;3.00;1.00;;;;;;;;5103531;27;45576;-75
2023/08/02 00:44:08;;;;;;;;;1.00;1.00;;;;;;;;5103985;27;45382;-75
2023/08/02 00:46:34;;;;;;;;;2.00;1.75;;;;;;;;5103517;27;46892;-75
2023/08/02 00:48:59;;;;;;;;;2.33;2.33;;;;;;;;5103199;27;47174;-76
2023/08/02 00:51:24;;;;;;;;;2.00;2.00;;;;;;;;5103385;27;45300;-75
2023/08/02 00:53:49;;;;;;;;;1.00;1.00;;;;;;;;5103753;27;45489;-75
2023/08/02 00:56:15;;;;;;;;;5.00;3.67;;;;;;;;5103516;27;45680;-75
2023/08/02 00:58:40;;;;;;;;;4.33;1.67;;;;;;;;5103373;27;47436;-75
2023/08/02 01:01:08;;;;;;;;;3.00;3.00;;;;;;;;5103450;27;45310;-75
2023/08/02 01:03:35;;;;;;;;;1.00;1.00;;;;;;;;5103218;27;45323;-75
2023/08/02 01:06:13;;;;;;;;;1.00;0.25;;;;;;;;5103238;27;47101;-75
2023/08/02 01:08:41;;;;;;;;;0.00;0.00;;;;;;;;5103256;27;47449;-75
2023/08/02 01:11:09;;;;;;;;;0.00;0.00;;;;;;;;5103152;27;45277;-76
2023/08/02 01:13:38;;;;;;;;;1.00;0.00;;;;;;;;5103424;27;45511;-76
2023/08/02 01:16:03;;;;;;;;;1.25;0.00;;;;;;;;5103096;27;45440;-75
2023/08/02 01:18:28;;;;;;;;;0.00;0.00;;;;;;;;5102822;27;46915;-75
2023/08/02 01:20:54;;;;;;;;;0.67;0.67;;;;;;;;5103002;27;45251;-75
2023/08/02 01:23:19;;;;;;;;;0.00;0.00;;;;;;;;5103405;27;45351;-76
2023/08/02 01:25:46;;;;;;;;;0.00;0.00;;;;;;;;5102973;27;46691;-76
2023/08/02 01:28:16;;;;;;;;;0.00;0.00;;;;;;;;5102963;27;47124;-76
2023/08/02 01:30:42;;;;;;;;;0.00;0.00;;;;;;;;5123371;27;45380;-76
2023/08/02 01:33:07;;;;;;;;;0.00;0.00;;;;;;;;5123540;27;45432;-76
2023/08/02 01:35:33;;;;;;;;;0.00;0.00;;;;;;;;5123414;27;45953;-76
2023/08/02 01:37:59;;;;;;;;;0.00;0.00;;;;;;;;5142208;27;45862;-76
2023/08/02 01:40:24;;;;;;;;;0.00;0.00;;;;;;;;5121964;27;45784;-76
2023/08/02 01:42:49;;;;;;;;;0.00;0.00;;;;;;;;5123708;27;45199;-75
2023/08/02 01:45:14;;;;;;;;;0.00;0.00;;;;;;;;5107990;27;45804;-76
2023/08/02 01:47:40;;;;;;;;;0.00;0.00;;;;;;;;5102003;27;45524;-75
2023/08/02 01:50:05;;;;;;;;;0.00;0.00;;;;;;;;5102421;27;45250;-76
2023/08/02 01:52:30;;;;;;;;;0.00;0.00;;;;;;;;5102733;27;45511;-76
2023/08/02 01:54:56;;;;;;;;;0.00;0.00;;;;;;;;5102745;27;46082;-76
2023/08/02 01:57:21;;;;;;;;;0.00;0.00;;;;;;;;5121289;27;46134;-76
2023/08/02 01:59:46;;;;;;;;;0.00;0.00;;;;;;;;5102699;27;45294;-76
2023/08/02 02:02:11;;;;;;;;;0.00;0.00;;;;;;;;5102636;27;45362;-76
2023/08/02 02:04:36;;;;;;;;;0.00;0.00;;;;;;;;5102290;27;46262;-76
2023/08/02 02:07:02;;;;;;;;;0.00;0.00;;;;;;;;5102320;27;48075;-76
2023/08/02 02:09:27;;;;;;;;;0.00;0.00;;;;;;;;5102538;27;45987;-76
2023/08/02 02:11:52;;;;;;;;;0.00;0.00;;;;;;;;5102572;27;45352;-76
2023/08/02 02:14:17;;;;;;;;;0.00;0.00;;;;;;;;5102460;27;45951;-76
2023/08/02 02:16:43;;;;;;;;;0.00;0.00;;;;;;;;5102344;27;48301;-76
2023/08/02 02:19:08;;;;;;;;;0.00;0.00;;;;;;;;5102484;27;45483;-76
2023/08/02 02:21:33;;;;;;;;;0.00;0.00;;;;;;;;5102363;27;45297;-76
2023/08/02 02:23:58;;;;;;;;;0.00;0.00;;;;;;;;5102541;27;45763;-76
2023/08/02 02:26:25;;;;;;;;;0.00;0.00;;;;;;;;5102355;27;47892;-76
2023/08/02 02:28:50;;;;;;;;;0.00;0.00;;;;;;;;5107151;27;45392;-76
2023/08/02 02:31:15;;;;;;;;;0.00;0.00;;;;;;;;5122946;27;45313;-76
2023/08/02 02:33:40;;;;;;;;;0.00;0.00;;;;;;;;5122448;27;45575;-76
2023/08/02 02:36:06;;;;;;;;;0.00;0.00;;;;;;;;5122600;27;45404;-76
2023/08/02 02:38:31;;;;;;;;;0.00;0.00;;;;;;;;5122814;27;45311;-76
2023/08/02 02:40:56;;;;;;;;;0.00;0.00;;;;;;;;5122591;27;45352;-76
2023/08/02 02:43:22;;;;;;;;;0.00;0.00;;;;;;;;5122877;27;45895;-76
2023/08/02 02:45:47;;;;;;;;;0.00;0.00;;;;;;;;5122836;27;47932;-76
2023/08/02 02:48:12;;;;;;;;;0.33;0.00;;;;;;;;5122610;27;45251;-76
2023/08/02 02:50:37;;;;;;;;;0.00;0.00;;;;;;;;5122467;27;45373;-77
2023/08/02 02:53:02;;;;;;;;;0.00;0.00;;;;;;;;5126226;27;45911;-76
2023/08/02 02:55:28;;;;;;;;;0.00;0.00;;;;;;;;5126158;27;47057;-76
2023/08/02 02:57:53;;;;;;;;;0.00;0.00;;;;;;;;5145396;27;45239;-76
2023/08/02 03:00:18;;;;;;;;;0.00;0.00;;;;;;;;5126197;27;45290;-76
2023/08/02 03:02:43;;;;;;;;;0.00;0.00;;;;;;;;5126107;27;45927;-76
2023/08/02 03:05:09;;;;;;;;;0.33;0.00;;;;;;;;5126188;27;46858;-76
2023/08/02 03:07:34;;;;;;;;;0.00;0.00;;;;;;;;5126387;27;45334;-76
2023/08/02 03:09:59;;;;;;;;;0.33;0.00;;;;;;;;5126040;27;45272;-76
2023/08/02 03:12:24;;;;;;;;;0.00;0.00;;;;;;;;5126128;27;46838;-76
2023/08/02 03:14:49;;;;;;;;;0.00;0.00;;;;;;;;5126653;27;46897;-76
2023/08/02 03:17:15;;;;;;;;;1.00;0.00;;;;;;;;5126363;27;45255;-76
2023/08/02 03:19:40;;;;;;;;;0.00;0.00;;;;;;;;5126436;27;45342;-76
2023/08/02 03:22:05;;;;;;;;;0.00;0.00;;;;;;;;5126187;27;45463;-76
2023/08/02 03:24:31;;;;;;;;;0.00;0.00;;;;;;;;5127329;27;46823;-76
2023/08/02 03:26:57;;;;;;;;;0.00;0.00;;;;;;;;5126947;27;45367;-76
2023/08/02 03:29:22;;;;;;;;;0.00;0.00;;;;;;;;5117320;27;45312;-76
2023/08/02 03:31:47;;;;;;;;;0.00;0.00;;;;;;;;5105690;27;47290;-76
2023/08/02 03:34:14;;;;;;;;;0.00;0.00;;;;;;;;5105083;27;47392;-76
2023/08/02 03:36:42;;;;;;;;;0.00;0.00;;;;;;;;5105712;27;45315;-76
2023/08/02 03:39:07;;;;;;;;;0.00;0.00;;;;;;;;5106498;27;45302;-76
2023/08/02 03:41:32;;;;;;;;;0.00;0.00;;;;;;;;5101278;27;45855;-76
2023/08/02 03:43:57;;;;;;;;;0.00;0.00;;;;;;;;5101725;27;45470;-76
2023/08/02 03:46:23;;;;;;;;;0.67;0.00;;;;;;;;5101414;27;45243;-76
2023/08/02 03:48:48;;;;;;;;;0.00;0.00;;;;;;;;5101427;27;45303;-76
2023/08/02 03:51:13;;;;;;;;;0.00;0.00;;;;;;;;5100977;27;47329;-76
2023/08/02 03:53:38;;;;;;;;;0.00;0.00;;;;;;;;5101222;27;45319;-75
2023/08/02 03:56:03;;;;;;;;;0.00;0.00;;;;;;;;5101184;27;46247;-76
2023/08/02 03:58:29;;;;;;;;;0.00;0.00;;;;;;;;5101331;27;45362;-76
2023/08/02 04:00:54;;;;;;;;;0.00;0.00;;;;;;;;5100988;27;46936;-76
2023/08/02 04:03:19;;;;;;;;;0.00;0.00;;;;;;;;5099709;27;45324;-76
2023/08/02 04:05:44;;;;;;;;;0.00;0.00;;;;;;;;5100926;27;45275;-75
2023/08/02 04:08:10;;;;;;;;;0.00;0.00;;;;;;;;5100974;27;45351;-76
2023/08/02 04:10:37;;;;;;;;;0.00;0.00;;;;;;;;5102246;27;45700;-75
2023/08/02 04:13:03;;;;;;;;;0.25;0.25;;;;;;;;5100927;27;45514;-75
2023/08/02 04:15:30;;;;;;;;;0.00;0.00;;;;;;;;5100938;27;45329;-76
2023/08/02 04:17:56;;;;;;;;;0.00;0.00;;;;;;;;5100696;27;45496;-75
2023/08/02 04:20:21;;;;;;;;;0.00;0.00;;;;;;;;5100552;27;46537;-75
2023/08/02 04:22:49;;;;;;;;;1.00;0.00;;;;;;;;5100564;27;47612;-75
2023/08/02 04:25:14;;;;;;;;;0.00;0.00;;;;;;;;5100815;27;45291;-76
2023/08/02 04:27:39;;;;;;;;;0.00;0.00;;;;;;;;5100678;27;45326;-75
2023/08/02 04:30:05;;;;;;;;;0.00;0.00;;;;;;;;5100283;27;46204;-75
2023/08/02 04:32:31;;;;;;;;;0.00;0.00;;;;;;;;5100216;27;47268;-75
2023/08/02 04:34:56;;;;;;;;;0.00;0.00;;;;;;;;5100544;27;45243;-76
2023/08/02 04:37:21;;;;;;;;;0.00;0.00;;;;;;;;5100206;27;45378;-76
2023/08/02 04:39:47;;;;;;;;;0.00;0.00;;;;;;;;5100518;27;45722;-75
2023/08/02 04:42:12;;;;;;;;;0.00;0.00;;;;;;;;5117722;27;45536;-75
2023/08/02 04:44:37;;;;;;;;;0.00;0.00;;;;;;;;5121082;27;45340;-76
2023/08/02 04:47:03;;;;;;;;;0.00;0.00;;;;;;;;5121069;27;45380;-75
2023/08/02 04:49:28;;;;;;;;;0.00;0.00;;;;;;;;5120542;27;45616;-76
2023/08/02 04:51:53;;;;;;;;;0.00;0.00;;;;;;;;5120665;27;46812;-75
2023/08/02 04:54:18;;;;;;;;;0.00;0.00;;;;;;;;5120767;27;45302;-76
2023/08/02 04:56:43;;;;;;;;;0.00;0.00;;;;;;;;5120958;27;45234;-76
2023/08/02 04:59:10;;;;;;;;;0.00;0.00;;;;;;;;5120761;27;46778;-75
2023/08/02 05:01:35;;;;;;;;;0.00;0.00;;;;;;;;5120651;27;47582;-76
2023/08/02 05:04:00;;;;;;;;;0.00;0.00;;;;;;;;5120397;27;45324;-76
2023/08/02 05:06:25;;;;;;;;;0.00;0.00;;;;;;;;5120694;27;45323;-75
2023/08/02 05:08:51;;;;;;;;;0.00;0.00;;;;;;;;5120502;27;45292;-76
2023/08/02 05:11:16;;;;;;;;;0.00;0.00;;;;;;;;5120496;27;47144;-76
2023/08/02 05:13:41;;;;;;;;;0.75;0.00;;;;;;;;5120084;27;45255;-76
2023/08/02 05:16:11;;;;;;;;;1.25;0.00;;;;;;;;5120620;27;45283;-75
2023/08/02 05:18:36;;;;;;;;;0.00;0.00;;;;;;;;5120221;27;46958;-76
2023/08/02 05:21:09;;;;;;;;;0.00;0.00;;;;;;;;5100833;27;46751;-74
2023/08/02 05:23:34;;;;;;;;;1.00;0.00;;;;;;;;5094430;27;45359;-76
2023/08/02 05:26:02;;;;;;;;;0.00;0.00;;;;;;;;5099883;27;45381;-76
2023/08/02 05:28:27;;;;;;;;;0.00;0.00;;;;;;;;5101054;27;47220;-76
2023/08/02 05:30:53;;;;;;;;;0.00;0.00;;;;;;;;5119847;27;46713;-76
2023/08/02 05:33:18;;;;;;;;;0.00;0.00;;;;;;;;5120080;27;45345;-75
2023/08/02 05:35:43;;;;;;;;;0.00;0.00;;;;;;;;5120309;27;45390;-76
2023/08/02 05:38:10;;;;;;;;;0.00;0.00;;;;;;;;5119999;27;45524;-76
2023/08/02 05:40:35;;;;;;;;;0.00;0.00;;;;;;;;5120017;27;47900;-76
2023/08/02 05:43:01;;;;;;;;;0.00;0.00;;;;;;;;5119820;27;45250;-76
2023/08/02 05:45:26;;;;;;;;;0.00;0.00;;;;;;;;5121622;27;45293;-76
2023/08/02 05:47:52;;;;;;;;;0.00;0.00;;;;;;;;5119872;27;45711;-76
2023/08/02 05:50:17;;;;;;;;;0.00;0.00;;;;;;;;5119531;27;47096;-76
2023/08/02 05:52:42;;;;;;;;;0.00;0.00;;;;;;;;5120097;27;45304;-76
2023/08/02 05:55:08;;;;;;;;;0.00;0.00;;;;;;;;5119390;27;45284;-76
2023/08/02 05:57:33;;;;;;;;;0.00;0.00;;;;;;;;5119766;27;46210;-76
2023/08/02 05:59:58;;;;;;;;;0.00;0.00;;;;;;;;5119807;27;48277;-76
2023/08/02 06:02:23;;;;;;;;;3.00;0.00;;;;;;;;5119618;27;45221;-76
2023/08/02 06:04:49;;;;;;;;;0.00;0.00;;;;;;;;5119932;27;45249;-76
2023/08/02 06:07:14;;;;;;;;;0.50;0.50;;;;;;;;5119805;27;45627;-76
2023/08/02 06:09:39;;;;;;;;;1.00;1.00;;;;;;;;5119507;27;47732;-77
2023/08/02 06:12:04;;;;;;;;;0.00;0.00;;;;;;;;5119775;27;45282;-76
2023/08/02 06:14:30;;;;;;;;;1.50;1.50;;;;;;;;5119950;27;45356;-76
2023/08/02 06:16:55;;;;;;;;;0.75;0.75;;;;;;;;5120978;27;45312;-75
2023/08/02 06:19:20;;;;;;;;;0.00;0.00;;;;;;;;5119233;27;47339;-76
2023/08/02 06:21:45;;;;;;;;;0.00;0.00;;;;;;;;5119464;27;45346;-76
2023/08/02 06:24:10;;;;;;;;;0.75;0.75;;;;;;;;5119556;27;45457;-76
2023/08/02 06:26:36;;;;;;;;;0.00;0.00;;;;;;;;5120976;27;46035;-76
2023/08/02 06:29:01;;;;;;;;;0.00;0.00;;;;;;;;5117105;27;45359;-75
2023/08/02 06:31:26;;;;;;;;;0.00;0.00;;;;;;;;5102904;27;45330;-76
2023/08/02 06:33:52;;;;;;;;;0.00;0.00;;;;;;;;5102781;27;45251;-76
2023/08/02 06:36:17;;;;;;;;;0.75;0.75;;;;;;;;5102430;27;47174;-75
2023/08/02 06:38:43;;;;;;;;;0.00;0.00;;;;;;;;5102368;27;46682;-76
2023/08/02 06:41:09;;;;;;;;;0.00;0.00;;;;;;;;5102257;27;45314;-76
2023/08/02 06:43:34;;;;;;;;;0.00;0.00;;;;;;;;5102509;27;45385;-76
2023/08/02 06:45:59;;;;;;;;;1.00;1.00;;;;;;;;5102094;27;45366;-76
2023/08/02 06:48:25;;;;;;;;;0.00;0.00;;;;;;;;5102479;27;47826;-76
2023/08/02 06:50:53;;;;;;;;;0.00;0.00;;;;;;;;5102356;27;45445;-76
2023/08/02 06:53:18;;;;;;;;;0.00;0.00;;;;;;;;5102644;27;45358;-76
2023/08/02 06:55:44;;;;;;;;;0.00;0.00;;;;;;;;5102332;27;45448;-76
2023/08/02 06:58:09;;;;;;;;;1.00;0.00;;;;;;;;5101902;27;48071;-76
2023/08/02 07:00:34;;;;;;;;;0.00;0.00;;;;;;;;5102240;27;46113;-76
2023/08/02 07:03:00;;;;;;;;;0.00;0.00;;;;;;;;5102054;27;45299;-75
2023/08/02 07:05:28;;;;;;;;;0.00;0.00;;;;;;;;5101964;27;45941;-76
2023/08/02 07:07:53;;;;;;;;;0.00;0.00;;;;;;;;5101816;27;47365;-76
2023/08/02 07:10:19;;;;;;;;;0.00;0.00;;;;;;;;5101629;27;45299;-76
2023/08/02 07:12:44;;;;;;;;;0.00;0.00;;;;;;;;5102190;27;45267;-76
2023/08/02 07:15:09;;;;;;;;;0.00;0.00;;;;;;;;5103109;27;45341;-77
2023/08/02 07:17:34;;;;;;;;;0.75;0.00;;;;;;;;5102767;27;46139;-76
2023/08/02 07:20:00;;;;;;;;;0.00;0.00;;;;;;;;5101708;27;45413;-76
2023/08/02 07:22:25;;;;;;;;;0.00;0.00;;;;;;;;5101691;27;45324;-76
2023/08/02 07:24:50;;;;;;;;;0.00;0.00;;;;;;;;5101830;27;46050;-75
2023/08/02 07:27:16;;;;;;;;;0.00;0.00;;;;;;;;5101534;27;47920;-76
2023/08/02 07:29:41;;;;;;;;;0.00;0.00;;;;;;;;5101361;27;45789;-75
2023/08/02 07:32:06;;;;;;;;;0.00;0.00;;;;;;;;5101348;27;45350;-76
2023/08/02 07:34:32;;;;;;;;;0.00;0.00;;;;;;;;5101206;27;45672;-75
2023/08/02 07:36:58;;;;;;;;;0.00;0.00;;;;;;;;5101268;27;47855;-76
2023/08/02 07:39:23;;;;;;;;;0.00;0.00;;;;;;;;5101454;27;45163;-76
2023/08/02 07:41:48;;;;;;;;;0.00;0.00;;;;;;;;5115908;27;45377;-76
2023/08/02 07:44:14;;;;;;;;;0.00;0.00;;;;;;;;5122077;27;45834;-76
2023/08/02 07:46:40;;;;;;;;;0.00;0.00;;;;;;;;5104640;27;46115;-76
2023/08/02 07:49:05;;;;;;;;;0.00;0.00;;;;;;;;5121646;27;45322;-76
2023/08/02 07:51:30;;;;;;;;;0.25;0.00;;;;;;;;5121842;27;45381;-76
2023/08/02 07:53:56;;;;;;;;;0.00;0.00;;;;;;;;5121799;27;45908;-76
2023/08/02 07:56:21;;;;;;;;;0.00;0.00;;;;;;;;5123103;27;45263;-76
2023/08/02 07:58:46;;;;;;;;;0.00;0.00;;;;;;;;5121629;27;45305;-76
2023/08/02 08:01:11;;;;;;;;;0.00;0.00;;;;;;;;5121936;27;45332;-77
2023/08/02 08:03:37;;;;;;;;;0.00;0.00;;;;;;;;5122063;27;45898;-76
2023/08/02 08:06:13;;;;;;;;;0.00;0.00;;;;;;;;5121893;27;47068;-76
2023/08/02 08:08:38;;;;;;;;;0.00;0.00;;;;;;;;5124073;27;45467;-78
2023/08/02 08:11:04;;;;;;;;;0.00;0.00;;;;;;;;5105103;27;45353;-78
2023/08/02 08:13:29;;;;;;;;;0.00;0.00;;;;;;;;5123639;27;45334;-79
2023/08/02 08:15:54;;;;;;;;;0.00;0.00;;;;;;;;5101801;27;47368;-78
2023/08/02 08:18:19;;;;;;;;;0.00;0.00;;;;;;;;5100568;27;45663;-78
2023/08/02 08:20:44;;;;;;;;;0.00;0.00;;;;;;;;5101359;27;45347;-79
2023/08/02 08:23:10;;;;;;;;;0.00;0.00;;;;;;;;5101042;27;47121;-79
2023/08/02 08:25:35;;;;;;;;;0.00;0.00;;;;;;;;5100991;27;47154;-78
2023/08/02 08:28:00;;;;;;;;;0.00;0.00;;;;;;;;5101044;27;45378;-76
2023/08/02 08:30:25;;;;;;;;;0.00;0.00;;;;;;;;5119139;27;45517;-79
2023/08/02 08:32:50;;;;;;;;;0.00;0.00;;;;;;;;5121321;27;45316;-79
2023/08/02 08:35:16;;;;;;;;;0.00;0.00;;;;;;;;5121536;27;46901;-78
2023/08/02 08:37:41;;;;;;;;;0.00;0.00;;;;;;;;5121456;27;46096;-78
2023/08/02 08:40:06;;;;;;;;;0.00;0.00;;;;;;;;5121460;27;45251;-78
2023/08/02 08:42:32;;;;;;;;;0.00;0.00;;;;;;;;5121150;27;45885;-78
2023/08/02 08:44:58;;;;;;;;;0.00;0.00;;;;;;;;5121807;27;46931;-77
2023/08/02 08:47:24;;;;;;;;;0.00;0.00;;;;;;;;5121156;27;45272;-77
2023/08/02 08:49:49;;;;;;;;;0.00;0.00;;;;;;;;5121027;27;45457;-78
2023/08/02 08:52:16;;;;;;;;;0.00;0.00;;;;;;;;5121228;27;45672;-78
2023/08/02 08:54:43;;;;;;;;;0.00;0.00;;;;;;;;5121471;27;48171;-76
2023/08/02 08:57:09;;;;;;;;;0.00;0.00;;;;;;;;5121164;27;45398;-75
2023/08/02 08:59:35;;;;;;;;;0.00;0.00;;;;;;;;5123211;27;45309;-76
2023/08/02 09:02:01;;;;;;;;;0.00;0.00;;;;;;;;5120632;27;46847;-76
2023/08/02 09:04:29;;;;;;;;;0.00;0.00;;;;;;;;5121016;27;47053;-75
2023/08/02 09:06:54;;;;;;;;;0.00;0.00;;;;;;;;5120543;27;45338;-75
2023/08/02 09:09:19;;;;;;;;;0.00;0.00;;;;;;;;5120938;27;45335;-76
2023/08/02 09:11:45;;;;;;;;;0.00;0.00;;;;;;;;5120484;27;45856;-74
2023/08/02 09:14:10;;;;;;;;;0.00;0.00;;;;;;;;5120696;27;47133;-76
2023/08/02 09:16:36;;;;;;;;;0.00;0.00;;;;;;;;5120625;27;45357;-75
2023/08/02 09:19:01;;;;;;;;;0.00;0.00;;;;;;;;5120595;27;45250;-74
2023/08/02 09:21:26;;;;;;;;;1.00;0.00;;;;;;;;5102664;27;45336;-76
2023/08/02 09:23:55;;;;;;;;;0.00;0.00;;;;;;;;5100142;27;46220;-75
2023/08/02 09:26:21;;;;;;;;;0.00;0.00;;;;;;;;5101662;27;45362;-76
2023/08/02 09:29:00;;;;;;;;;0.00;0.00;;;;;;;;5105942;27;45345;-75
2023/08/02 09:31:26;;;;;;;;;0.00;0.00;;;;;;;;5121770;27;45413;-76
2023/08/02 09:33:52;;;;;;;;;0.00;0.00;;;;;;;;5120750;27;45379;-77
2023/08/02 09:36:21;;;;;;;;;0.00;0.00;;;;;;;;5123569;27;45271;-75
2023/08/02 09:39:06;;;;;;;;;0.00;0.00;;;;;;;;5122455;27;45315;-75
2023/08/02 09:41:32;;;;;;;;;0.00;0.00;;;;;;;;5123078;27;45734;-75
2023/08/02 09:43:57;;;;;;;;;0.00;0.00;;;;;;;;5123226;27;47151;-77
2023/08/02 09:46:25;;;;;;;;;0.00;0.00;;;;;;;;5122497;27;45344;-75
2023/08/02 09:48:51;;;;;;;;;0.00;0.00;;;;;;;;5120533;27;45353;-75
2023/08/02 09:51:16;;;;;;;;;0.00;0.00;;;;;;;;5109164;27;46650;-74
2023/08/02 09:53:52;;;;;;;;;0.00;0.00;;;;;;;;5100013;27;46852;-74
2023/08/02 09:56:17;;;;;;;;;0.00;0.00;;;;;;;;5099486;27;45349;-75
2023/08/02 09:58:44;;;;;;;;;0.00;0.00;;;;;;;;5100831;27;45569;-74
2023/08/02 10:01:09;;;;;;;;;0.75;0.75;;;;;;;;5098810;27;46645;-78
2023/08/02 10:03:35;;;;;;;;;0.50;0.00;;;;;;;;5099758;27;48079;-76
2023/08/02 10:06:03;;;;;;;;;1.00;0.00;;;;;;;;5108039;27;45292;-75
2023/08/02 10:08:29;;;;;;;;;0.00;0.00;;;;;;;;5121329;27;45394;-76
2023/08/02 10:10:55;;;;;;;;;0.00;0.00;;;;;;;;5113872;27;45934;-74
2023/08/02 10:13:29;;;;;;;;;0.25;0.25;;;;;;;;5099869;27;47963;-76
2023/08/02 10:15:55;;;;;;;;;0.00;0.00;;;;;;;;5100337;27;45196;-75
2023/08/02 10:18:21;;;;;;;;;0.00;0.00;;;;;;;;5099462;27;45289;-75
2023/08/02 10:20:46;;;;;;;;;0.00;0.00;;;;;;;;5100060;27;46189;-75
2023/08/02 10:23:12;;;;;;;;;0.25;0.00;;;;;;;;5101318;27;47165;-75
2023/08/02 10:25:37;;;;;;;;;0.00;0.00;;;;;;;;5101018;27;45387;-75
2023/08/02 10:28:02;;;;;;;;;0.00;0.00;;;;;;;;5100233;27;45339;-76
2023/08/02 10:30:29;;;;;;;;;0.00;0.00;;;;;;;;5100543;27;46401;-75
2023/08/02 10:33:12;;;;;;;;;0.00;0.00;;;;;;;;5099531;27;47774;-76
2023/08/02 10:35:54;;;;;;;;;0.00;0.00;;;;;;;;5081634;27;45344;-76
2023/08/02 10:38:24;;;;;;;;;0.25;0.25;;;;;;;;5081071;28;45250;-76
2023/08/02 10:41:22;;;;;;;;;0.50;0.50;;;;;;;;5122271;27;45519;-75
2023/08/02 10:43:53;;;;;;;;;0.00;0.00;;;;;;;;5098059;27;48010;-75
2023/08/02 10:46:24;;;;;;;;;1.00;0.00;;;;;;;;5122193;27;45326;-77
2023/08/02 10:48:49;;;;;;;;;0.00;0.00;;;;;;;;5117174;27;45364;-75
2023/08/02 10:51:27;;;;;;;;;0.00;0.00;;;;;;;;5099559;27;45957;-76
2023/08/02 10:54:11;;;;;;;;;0.00;0.00;;;;;;;;5101023;27;47020;-75
2023/08/02 10:57:06;;;;;;;;;0.25;0.25;;;;;;;;5101420;27;45334;-74
2023/08/02 10:59:31;;;;;;;;;1.00;0.00;;;;;;;;5095450;27;45537;-75
2023/08/02 11:01:56;;;;;;;;;0.50;0.50;;;;;;;;5097222;27;45755;-75
2023/08/02 11:04:22;;;;;;;;;0.75;0.00;;;;;;;;5105215;27;46873;-76
2023/08/02 11:06:47;;;;;;;;;1.00;0.00;;;;;;;;5103702;27;45315;-76
2023/08/02 11:09:13;;;;;;;;;0.75;0.00;;;;;;;;5103704;27;45549;-75
2023/08/02 11:11:38;;;;;;;;;2.25;1.00;;;;;;;;5119782;27;45754;-74
2023/08/02 11:14:03;;;;;;;;;0.00;0.00;;;;;;;;5117814;27;45416;-75
2023/08/02 11:16:29;;;;;;;;;0.25;0.00;;;;;;;;5105234;27;45357;-75
2023/08/02 11:18:54;;;;;;;;;0.50;0.50;;;;;;;;5101768;27;45534;-75
2023/08/02 11:21:19;;;;;;;;;5.50;5.50;;;;;;;;5103554;27;47445;-77
2023/08/02 11:23:49;;;;;;;;;3.00;3.00;;;;;;;;5101742;27;48256;-76
2023/08/02 11:26:15;;;;;;;;;0.00;0.00;;;;;;;;5097233;27;45340;-75
2023/08/02 11:28:48;;;;;;;;;0.00;0.00;;;;;;;;5088857;27;45459;-75
2023/08/02 11:31:14;;;;;;;;;0.00;0.00;;;;;;;;5122246;27;45805;-76
2023/08/02 11:33:40;;;;;;;;;1.00;1.00;;;;;;;;5110383;27;47934;-75
2023/08/02 11:36:06;;;;;;;;;0.00;0.00;;;;;;;;5099939;27;45767;-76
2023/08/02 11:38:31;;;;;;;;;2.00;0.25;;;;;;;;5104375;27;45293;-76
2023/08/02 11:40:57;;;;;;;;;3.50;0.75;;;;;;;;5121571;27;45529;-76
2023/08/02 11:43:35;;;;;;;;;0.00;0.00;;;;;;;;5124364;27;48288;-76
2023/08/02 11:46:11;;;;;;;;;1.00;1.00;;;;;;;;5106717;27;45444;-76
2023/08/02 11:48:36;;;;;;;;;0.00;0.00;;;;;;;;5104213;27;45350;-76
2023/08/02 11:51:01;;;;;;;;;1.00;1.00;;;;;;;;5100957;27;45870;-74
2023/08/02 11:53:27;;;;;;;;;0.75;0.00;;;;;;;;5103737;27;45307;-75
2023/08/02 11:55:52;;;;;;;;;0.00;0.00;;;;;;;;5102710;27;45325;-75
2023/08/02 11:58:17;;;;;;;;;0.75;0.75;;;;;;;;5101128;27;45368;-76
2023/08/02 12:00:43;;;;;;;;;0.00;0.00;;;;;;;;5100651;27;45569;-76
2023/08/02 12:03:09;;;;;;;;;0.00;0.00;;;;;;;;5101761;27;46034;-76
2023/08/02 12:05:35;;;;;;;;;2.00;1.25;;;;;;;;5100919;27;45241;-76
2023/08/02 12:08:10;;;;;;;;;3.00;2.00;;;;;;;;5100970;27;45326;-75
2023/08/02 12:10:35;;;;;;;;;2.00;1.50;;;;;;;;5100622;27;45452;-75
2023/08/02 12:13:06;;;;;;;;;0.75;0.75;;;;;;;;5100567;27;45402;-76
2023/08/02 12:15:31;;;;;;;;;2.00;0.00;;;;;;;;5102096;27;45399;-76
2023/08/02 12:18:03;;;;;;;;;0.00;0.00;;;;;;;;5100604;27;45299;-75
2023/08/02 12:20:33;;;;;;;;;0.25;0.25;;;;;;;;5100642;27;45455;-77
2023/08/02 12:22:58;;;;;;;;;0.00;0.00;;;;;;;;5089459;27;46466;-75
2023/08/02 12:25:23;;;;;;;;;1.00;1.00;;;;;;;;5099968;27;45273;-75
2023/08/02 12:28:01;;;;;;;;;1.00;1.00;;;;;;;;5101307;27;45313;-77
2023/08/02 12:30:27;;;;;;;;;0.00;0.00;;;;;;;;5119260;27;46346;-76
2023/08/02 12:32:52;;;;;;;;;1.75;0.25;;;;;;;;5121289;27;47612;-78
2023/08/02 12:35:18;;;;;;;;;2.25;1.00;;;;;;;;5110300;27;45354;-75
2023/08/02 12:37:47;;;;;;;;;2.00;2.00;;;;;;;;5122109;27;45336;-76
2023/08/02 12:40:12;;;;;;;;;2.00;1.00;;;;;;;;5117363;27;45628;-75
2023/08/02 12:42:37;;;;;;;;;0.25;0.25;;;;;;;;5104591;27;46467;-76
2023/08/02 12:45:03;;;;;;;;;1.00;1.00;;;;;;;;5105021;27;45533;-75
2023/08/02 12:47:28;;;;;;;;;4.00;3.00;;;;;;;;5103994;27;45456;-75
2023/08/02 12:49:53;;;;;;;;;1.00;1.00;;;;;;;;5103549;27;45413;-74
2023/08/02 12:52:19;;;;;;;;;3.00;2.00;;;;;;;;5103707;27;47966;-75
2023/08/02 12:54:44;;;;;;;;;1.50;1.50;;;;;;;;5103662;27;45196;-74
2023/08/02 12:57:09;;;;;;;;;1.25;1.25;;;;;;;;5103601;27;45548;-76
2023/08/02 12:59:34;;;;;;;;;1.50;0.75;;;;;;;;5122781;27;45402;-75
2023/08/02 13:01:59;;;;;;;;;3.00;2.00;;;;;;;;5102535;27;47731;-75
2023/08/02 13:04:25;;;;;;;;;1.75;1.75;;;;;;;;5122167;27;45187;-77
2023/08/02 13:06:50;;;;;;;;;2.75;2.00;;;;;;;;5122410;27;45244;-76
2023/08/02 13:09:15;;;;;;;;;0.75;0.00;;;;;;;;5103128;27;47231;-75
2023/08/02 13:11:41;;;;;;;;;2.00;1.00;;;;;;;;5121024;27;45411;-75
2023/08/02 13:14:06;;;;;;;;;0.75;0.75;;;;;;;;5122323;27;45322;-75
2023/08/02 13:16:31;;;;;;;;;2.00;1.00;;;;;;;;5122243;27;45311;-75
2023/08/02 13:18:57;;;;;;;;;0.00;0.00;;;;;;;;5122032;27;45301;-76
2023/08/02 13:21:22;;;;;;;;;1.50;1.50;;;;;;;;5103559;27;48162;-75
2023/08/02 13:23:47;;;;;;;;;3.00;0.00;;;;;;;;5103346;27;45288;-76
2023/08/02 13:26:13;;;;;;;;;1.00;1.00;;;;;;;;5121213;27;45224;-75
2023/08/02 13:28:38;;;;;;;;;0.00;0.00;;;;;;;;5106363;27;47027;-76
2023/08/02 13:31:03;;;;;;;;;0.00;0.00;;;;;;;;5110227;27;46904;-76
2023/08/02 13:33:29;;;;;;;;;1.00;1.00;;;;;;;;5100628;27;45764;-76
2023/08/02 13:35:54;;;;;;;;;1.75;1.75;;;;;;;;5121984;27;45357;-75
2023/08/02 13:38:19;;;;;;;;;0.00;0.00;;;;;;;;5103690;27;45941;-75
2023/08/02 13:40:44;;;;;;;;;1.50;1.50;;;;;;;;5121415;27;45492;-75
2023/08/02 13:43:10;;;;;;;;;3.00;1.25;;;;;;;;5121371;27;45371;-75
2023/08/02 13:45:35;;;;;;;;;1.25;0.00;;;;;;;;5121380;27;45454;-76
2023/08/02 13:48:02;;;;;;;;;1.75;1.00;;;;;;;;5102760;27;46440;-74
2023/08/02 13:50:28;;;;;;;;;2.00;2.00;;;;;;;;5120574;27;46009;-76
2023/08/02 13:52:53;;;;;;;;;1.75;1.75;;;;;;;;5118961;27;45313;-75
2023/08/02 13:55:19;;;;;;;;;0.50;0.00;;;;;;;;5121896;27;45298;-75
2023/08/02 13:57:44;;;;;;;;;1.00;0.25;;;;;;;;5121565;27;45448;-76
2023/08/02 14:00:09;;;;;;;;;0.75;0.00;;;;;;;;5117041;27;45199;-76
2023/08/02 14:02:35;;;;;;;;;1.00;1.00;;;;;;;;5120775;27;45356;-75
2023/08/02 14:05:00;;;;;;;;;1.00;0.00;;;;;;;;5102505;27;45366;-74
2023/08/02 14:07:25;;;;;;;;;1.25;1.00;;;;;;;;5100204;27;45576;-76
2023/08/02 14:09:50;;;;;;;;;1.00;1.00;;;;;;;;5102001;27;46987;-75
2023/08/02 14:12:15;;;;;;;;;2.00;1.00;;;;;;;;5102311;27;45358;-74
2023/08/02 14:14:41;;;;;;;;;0.75;0.00;;;;;;;;5102151;27;45529;-74
2023/08/02 14:17:07;;;;;;;;;0.25;0.25;;;;;;;;5102177;27;45767;-74
2023/08/02 14:19:32;;;;;;;;;0.75;0.75;;;;;;;;5102139;27;47729;-74
2023/08/02 14:21:57;;;;;;;;;1.50;1.25;;;;;;;;5120711;27;45149;-75
2023/08/02 14:24:25;;;;;;;;;0.25;0.25;;;;;;;;5102462;27;45228;-74
2023/08/02 14:26:50;;;;;;;;;5.75;3.75;;;;;;;;5102425;27;46023;-76
2023/08/02 14:29:15;;;;;;;;;1.50;0.00;;;;;;;;5110209;27;46972;-75
2023/08/02 14:31:40;;;;;;;;;1.50;1.50;;;;;;;;5122558;27;45298;-75
2023/08/02 14:34:05;;;;;;;;;0.25;0.25;;;;;;;;5122914;27;45304;-75
2023/08/02 14:36:30;;;;;;;;;2.00;1.25;;;;;;;;5122699;27;46974;-75